Flight Track Log - Related Links

Times and Time Zones

All times are in EDT time to prevent confusion due to time zone crossing. See the DAL110 flight status page for this flight to view local times or setup timezone preferences in your user account.

Time Position Orientation Groundspeed Altitude Reporting Facility
EDT Latitude Longitude Course Direction KTS MPH feet Rate Location/Type
Sat 07:37:00 PM -34.7093 -58.5822 339° North  Level FlightAware Approximate
Sat 07:38:00 PM -34.5950 -58.6354 339° North  Level FlightAware Approximate
Sat 07:39:00 PM -34.4808 -58.6886 339° North  Level FlightAware Approximate
Sat 07:40:00 PM -34.3665 -58.7415 339° North  Level FlightAware Approximate
Sat 07:41:00 PM -34.2514 -58.7947 339° North  Level FlightAware Approximate
Sat 07:42:00 PM -34.1363 -58.8477 339° North  Level FlightAware Approximate
Sat 07:43:00 PM -34.0212 -58.9006 339° North  Level FlightAware Approximate
Sat 07:44:00 PM -33.9061 -58.9533 339° North  Level FlightAware Approximate
Sat 07:45:00 PM -33.7909 -59.0059 339° North  Level FlightAware Approximate
Sat 07:46:00 PM -33.6757 -59.0584 339° North  Level FlightAware Approximate
Sat 07:47:00 PM -33.5605 -59.1107 339° North  Level FlightAware Approximate
Sat 07:48:00 PM -33.4453 -59.1629 339° North  Level FlightAware Approximate
Sat 07:49:00 PM -33.3276 -59.2165 339° North  Level FlightAware Approximate
Sat 07:50:00 PM -33.2125 -59.2690 339° North  Level FlightAware Approximate
Sat 07:51:00 PM -33.0974 -59.3214 339° North  Level FlightAware Approximate
Sat 07:52:00 PM -32.9823 -59.3736 339° North  Level FlightAware Approximate
Sat 07:53:00 PM -32.8671 -59.4257 339° North  Level FlightAware Approximate
Sat 07:54:00 PM -32.7520 -59.4777 339° North  Level FlightAware Approximate
Sat 07:55:00 PM -32.6368 -59.5295 339° North  Level FlightAware Approximate
Sat 07:56:00 PM -32.5216 -59.5813 339° North  Level FlightAware Approximate
Sat 07:57:00 PM -32.4064 -59.6328 339° North  Level FlightAware Approximate
Sat 07:58:00 PM -32.2911 -59.6843 339° North  Level FlightAware Approximate
Sat 07:59:00 PM -32.1759 -59.7356 339° North  Level FlightAware Approximate
Sat 08:00:00 PM -32.0606 -59.7868 339° North  Level FlightAware Approximate
Sat 08:01:00 PM -31.9453 -59.8379 339° North  Level FlightAware Approximate
Sat 08:02:00 PM -31.8299 -59.8888 339° North  Level FlightAware Approximate
Sat 08:03:00 PM -31.7146 -59.9396 339° North  Level FlightAware Approximate
Sat 08:04:00 PM -31.5992 -59.9903 339° North  Level FlightAware Approximate
Sat 08:05:00 PM -31.4838 -60.0408 340° North  Level FlightAware Approximate
Sat 08:06:00 PM -31.3684 -60.0913 340° North  Level FlightAware Approximate
Sat 08:07:00 PM -31.2530 -60.1415 340° North  Level FlightAware Approximate
Sat 08:08:00 PM -31.1375 -60.1917 340° North  Level FlightAware Approximate
Sat 08:09:00 PM -31.0221 -60.2418 340° North  Level FlightAware Approximate
Sat 08:10:00 PM -30.9066 -60.2917 340° North  Level FlightAware Approximate
Sat 08:11:00 PM -30.7911 -60.3415 340° North  Level FlightAware Approximate
Sat 08:12:00 PM -30.6756 -60.3913 340° North  Level FlightAware Approximate
Sat 08:13:00 PM -30.5600 -60.4408 340° North  Level FlightAware Approximate
Sat 08:14:00 PM -30.4445 -60.4903 340° North  Level FlightAware Approximate
Sat 08:15:00 PM -30.3289 -60.5396 340° North  Level FlightAware Approximate
Sat 08:16:00 PM -30.2133 -60.5889 340° North  Level FlightAware Approximate
Sat 08:17:00 PM -30.0977 -60.6380 340° North  Level FlightAware Approximate
Sat 08:18:00 PM -29.9820 -60.6870 340° North  Level FlightAware Approximate
Sat 08:19:00 PM -29.8664 -60.7359 340° North  Level FlightAware Approximate
Sat 08:20:00 PM -29.7507 -60.7846 340° North  Level FlightAware Approximate
Sat 08:21:00 PM -29.6350 -60.8333 340° North  Level FlightAware Approximate
Sat 08:22:00 PM -29.5193 -60.8818 340° North  Level FlightAware Approximate
Sat 08:23:00 PM -29.4036 -60.9302 340° North  Level FlightAware Approximate
Sat 08:24:00 PM -29.2878 -60.9786 340° North  Level FlightAware Approximate
Sat 08:25:00 PM -29.1721 -61.0268 340° North  Level FlightAware Approximate
Sat 08:26:00 PM -29.0563 -61.0749 340° North  Level FlightAware Approximate
Sat 08:27:00 PM -28.9405 -61.1229 340° North  Level FlightAware Approximate
Sat 08:28:00 PM -28.8247 -61.1708 340° North  Level FlightAware Approximate
Sat 08:29:00 PM -28.7089 -61.2186 340° North  Level FlightAware Approximate
Sat 08:30:00 PM -28.5930 -61.2662 340° North  Level FlightAware Approximate
Sat 08:31:00 PM -28.4772 -61.3138 340° North  Level FlightAware Approximate
Sat 08:32:00 PM -28.3613 -61.3613 340° North  Level FlightAware Approximate
Sat 08:33:00 PM -28.2454 -61.4086 340° North  Level FlightAware Approximate
Sat 08:34:00 PM -28.1295 -61.4559 340° North  Level FlightAware Approximate
Sat 08:35:00 PM -28.0136 -61.5031 340° North  Level FlightAware Approximate
Sat 08:36:00 PM -27.8976 -61.5501 340° North  Level FlightAware Approximate
Sat 08:37:00 PM -27.7817 -61.5971 340° North  Level FlightAware Approximate
Sat 08:38:00 PM -27.6657 -61.6440 340° North  Level FlightAware Approximate
Sat 08:39:00 PM -27.5497 -61.6907 340° North  Level FlightAware Approximate
Sat 08:40:00 PM -27.4337 -61.7374 340° North  Level FlightAware Approximate
Sat 08:41:00 PM -27.3177 -61.7839 340° North  Level FlightAware Approximate
Sat 08:42:00 PM -27.2016 -61.8304 340° North  Level FlightAware Approximate
Sat 08:43:00 PM -27.0856 -61.8768 340° North  Level FlightAware Approximate
Sat 08:44:00 PM -26.9695 -61.9230 340° North  Level FlightAware Approximate
Sat 08:45:00 PM -26.8534 -61.9692 340° North  Level FlightAware Approximate
Sat 08:46:00 PM -26.7373 -62.0153 340° North  Level FlightAware Approximate
Sat 08:47:00 PM -26.6212 -62.0613 341° North  Level FlightAware Approximate
Sat 08:48:00 PM -26.5051 -62.1072 341° North  Level FlightAware Approximate
Sat 08:49:00 PM -26.3890 -62.1530 341° North  Level FlightAware Approximate
Sat 08:50:00 PM -26.2728 -62.1987 341° North  Level FlightAware Approximate
Sat 08:51:00 PM -26.1566 -62.2443 341° North  Level FlightAware Approximate
Sat 08:52:00 PM -26.0404 -62.2898 341° North  Level FlightAware Approximate
Sat 08:53:00 PM -25.9242 -62.3353 341° North  Level FlightAware Approximate
Sat 08:54:00 PM -25.8080 -62.3806 341° North  Level FlightAware Approximate
Sat 08:55:00 PM -25.6918 -62.4259 341° North  Level FlightAware Approximate
Sat 08:56:00 PM -25.5756 -62.4711 341° North  Level FlightAware Approximate
Sat 08:57:00 PM -25.4593 -62.5162 341° North  Level FlightAware Approximate
Sat 08:58:00 PM -25.3430 -62.5611 341° North  Level FlightAware Approximate
Sat 08:59:00 PM -25.2268 -62.6061 341° North  Level FlightAware Approximate
Sat 09:00:00 PM -25.1105 -62.6509 341° North  Level FlightAware Approximate
Sat 09:01:00 PM -24.9942 -62.6956 341° North  Level FlightAware Approximate
Sat 09:02:00 PM -24.8778 -62.7403 341° North  Level FlightAware Approximate
Sat 09:03:00 PM -24.7615 -62.7849 341° North  Level FlightAware Approximate
Sat 09:04:00 PM -24.6451 -62.8293 341° North  Level FlightAware Approximate
Sat 09:05:00 PM -24.5288 -62.8737 341° North  Level FlightAware Approximate
Sat 09:06:00 PM -24.4124 -62.9181 341° North  Level FlightAware Approximate
Sat 09:07:00 PM -24.2960 -62.9623 341° North  Level FlightAware Approximate
Sat 09:08:00 PM -24.1796 -63.0065 341° North  Level FlightAware Approximate
Sat 09:09:00 PM -24.0632 -63.0505 341° North  Level FlightAware Approximate
Sat 09:10:00 PM -23.9468 -63.0946 341° North  Level FlightAware Approximate
Sat 09:11:00 PM -23.8303 -63.1385 341° North  Level FlightAware Approximate
Sat 09:12:00 PM -23.7139 -63.1823 341° North  Level FlightAware Approximate
Sat 09:13:00 PM -23.5974 -63.2261 341° North  Level FlightAware Approximate
Sat 09:14:00 PM -23.4809 -63.2698 341° North  Level FlightAware Approximate
Sat 09:15:00 PM -23.3645 -63.3134 341° North  Level FlightAware Approximate
Sat 09:16:00 PM -23.2480 -63.3569 341° North  Level FlightAware Approximate
Sat 09:17:00 PM -23.1315 -63.4004 341° North  Level FlightAware Approximate
Sat 09:18:00 PM -23.0149 -63.4437 341° North  Level FlightAware Approximate
Sat 09:19:00 PM -22.8984 -63.4870 341° North  Level FlightAware Approximate
Sat 09:20:00 PM -22.7818 -63.5303 341° North  Level FlightAware Approximate
Sat 09:21:00 PM -22.6653 -63.5734 341° North  Level FlightAware Approximate
Sat 09:22:00 PM -22.5487 -63.6165 341° North  Level FlightAware Approximate
Sat 09:23:00 PM -22.4321 -63.6595 341° North  Level FlightAware Approximate
Sat 09:24:00 PM -22.3155 -63.7025 341° North  Level FlightAware Approximate
Sat 09:25:00 PM -22.1989 -63.7453 341° North  Level FlightAware Approximate
Sat 09:26:00 PM -22.0823 -63.7881 341° North  Level FlightAware Approximate
Sat 09:27:00 PM -21.9667 -63.8305 341° North  Level FlightAware Approximate
Sat 09:28:00 PM -21.8510 -63.8728 341° North  Level FlightAware Approximate
Sat 09:29:00 PM -21.7353 -63.9150 341° North  Level FlightAware Approximate
Sat 09:30:00 PM -21.6196 -63.9572 341° North  Level FlightAware Approximate
Sat 09:31:00 PM -21.5039 -63.9993 341° North  Level FlightAware Approximate
Sat 09:32:00 PM -21.3882 -64.0413 341° North  Level FlightAware Approximate
Sat 09:33:00 PM -21.2725 -64.0833 341° North  Level FlightAware Approximate
Sat 09:34:00 PM -21.1568 -64.1252 341° North  Level FlightAware Approximate
Sat 09:35:00 PM -21.0410 -64.1670 341° North  Level FlightAware Approximate
Sat 09:36:00 PM -20.9253 -64.2088 341° North  Level FlightAware Approximate
Sat 09:37:00 PM -20.8095 -64.2505 341° North  Level FlightAware Approximate
Sat 09:38:00 PM -20.6937 -64.2922 341° North  Level FlightAware Approximate
Sat 09:39:00 PM -20.5780 -64.3337 341° North  Level FlightAware Approximate
Sat 09:40:00 PM -20.4622 -64.3752 341° North  Level FlightAware Approximate
Sat 09:41:00 PM -20.3464 -64.4167 341° North  Level FlightAware Approximate
Sat 09:42:00 PM -20.2306 -64.4581 341° North  Level FlightAware Approximate
Sat 09:43:00 PM -20.1147 -64.4994 341° North  Level FlightAware Approximate
Sat 09:44:00 PM -19.9989 -64.5407 341° North  Level FlightAware Approximate
Sat 09:45:00 PM -19.8831 -64.5819 342° North  Level FlightAware Approximate
Sat 09:46:00 PM -19.7672 -64.6230 342° North  Level FlightAware Approximate
Sat 09:47:00 PM -19.6514 -64.6641 342° North  Level FlightAware Approximate
Sat 09:48:00 PM -19.5355 -64.7052 342° North  Level FlightAware Approximate
Sat 09:49:00 PM -19.4196 -64.7461 342° North  Level FlightAware Approximate
Sat 09:50:00 PM -19.3037 -64.7870 342° North  Level FlightAware Approximate
Sat 09:51:00 PM -19.1878 -64.8279 342° North  Level FlightAware Approximate
Sat 09:52:00 PM -19.0719 -64.8687 342° North  Level FlightAware Approximate
Sat 09:53:00 PM -18.9560 -64.9094 342° North  Level FlightAware Approximate
Sat 09:54:00 PM -18.8401 -64.9501 342° North  Level FlightAware Approximate
Sat 09:55:00 PM -18.7241 -64.9907 342° North  Level FlightAware Approximate
Sat 09:56:00 PM -18.6082 -65.0313 342° North  Level FlightAware Approximate
Sat 09:57:00 PM -18.4923 -65.0718 342° North  Level FlightAware Approximate
Sat 09:58:00 PM -18.3763 -65.1123 342° North  Level FlightAware Approximate
Sat 09:59:00 PM -18.2603 -65.1527 342° North  Level FlightAware Approximate
Sat 10:00:00 PM -18.1444 -65.1930 342° North  Level FlightAware Approximate
Sat 10:01:00 PM -18.0284 -65.2333 342° North  Level FlightAware Approximate
Sat 10:02:00 PM -17.9124 -65.2736 342° North  Level FlightAware Approximate
Sat 10:03:00 PM -17.7964 -65.3137 342° North  Level FlightAware Approximate
Sat 10:04:00 PM -17.6804 -65.3539 342° North  Level FlightAware Approximate
Sat 10:05:00 PM -17.5644 -65.3940 342° North  Level FlightAware Approximate
Sat 10:06:00 PM -17.4483 -65.4340 342° North  Level FlightAware Approximate
Sat 10:07:00 PM -17.3323 -65.4740 342° North  Level FlightAware Approximate
Sat 10:08:00 PM -17.2163 -65.5139 342° North  Level FlightAware Approximate
Sat 10:09:00 PM -17.1002 -65.5538 342° North  Level FlightAware Approximate
Sat 10:10:00 PM -16.9841 -65.5936 342° North  Level FlightAware Approximate
Sat 10:11:00 PM -16.8681 -65.6334 342° North  Level FlightAware Approximate
Sat 10:12:00 PM -16.7520 -65.6731 342° North  Level FlightAware Approximate
Sat 10:13:00 PM -16.6359 -65.7128 342° North  Level FlightAware Approximate
Sat 10:14:00 PM -16.5198 -65.7525 342° North  Level FlightAware Approximate
Sat 10:15:00 PM -16.4038 -65.7921 342° North  Level FlightAware Approximate
Sat 10:16:00 PM -16.2877 -65.8316 342° North  Level FlightAware Approximate
Sat 10:17:00 PM -16.1716 -65.8711 342° North  Level FlightAware Approximate
Sat 10:18:00 PM -16.0554 -65.9106 342° North  Level FlightAware Approximate
Sat 10:19:00 PM -15.9393 -65.9500 342° North  Level FlightAware Approximate
Sat 10:20:00 PM -15.8232 -65.9893 342° North  Level FlightAware Approximate
Sat 10:21:00 PM -15.7070 -66.0286 342° North  Level FlightAware Approximate
Sat 10:22:00 PM -15.5909 -66.0679 342° North  Level FlightAware Approximate
Sat 10:23:00 PM -15.4747 -66.1071 342° North  Level FlightAware Approximate
Sat 10:24:00 PM -15.3586 -66.1463 342° North  Level FlightAware Approximate
Sat 10:25:00 PM -15.2424 -66.1855 342° North  Level FlightAware Approximate
Sat 10:26:00 PM -15.1262 -66.2245 342° North  Level FlightAware Approximate
Sat 10:27:00 PM -15.0101 -66.2636 342° North  Level FlightAware Approximate
Sat 10:28:00 PM -14.8939 -66.3026 342° North  Level FlightAware Approximate
Sat 10:29:00 PM -14.7777 -66.3416 342° North  Level FlightAware Approximate
Sat 10:30:00 PM -14.6615 -66.3805 342° North  Level FlightAware Approximate
Sat 10:31:00 PM -14.5453 -66.4194 342° North  Level FlightAware Approximate
Sat 10:32:00 PM -14.4291 -66.4582 342° North  Level FlightAware Approximate
Sat 10:33:00 PM -14.3128 -66.4970 342° North  Level FlightAware Approximate
Sat 10:34:00 PM -14.1966 -66.5358 342° North  Level FlightAware Approximate
Sat 10:35:00 PM -14.0804 -66.5745 342° North  Level FlightAware Approximate
Sat 10:36:00 PM -13.9642 -66.6132 342° North  Level FlightAware Approximate
Sat 10:37:00 PM -13.8479 -66.6518 342° North  Level FlightAware Approximate
Sat 10:38:00 PM -13.7317 -66.6904 342° North  Level FlightAware Approximate
Sat 10:39:00 PM -13.6154 -66.7290 342° North  Level FlightAware Approximate
Sat 10:40:00 PM -13.4992 -66.7675 342° North  Level FlightAware Approximate
Sat 10:41:00 PM -13.3831 -66.8060 342° North  Level FlightAware Approximate
Sat 10:42:00 PM -13.2670 -66.8444 342° North  Level FlightAware Approximate
Sat 10:43:00 PM -13.1509 -66.8827 342° North  Level FlightAware Approximate
Sat 10:44:00 PM -13.0348 -66.9210 342° North  Level FlightAware Approximate
Sat 10:45:00 PM -12.9187 -66.9593 342° North  Level FlightAware Approximate
Sat 10:46:00 PM -12.8026 -66.9976 342° North  Level FlightAware Approximate
Sat 10:47:00 PM -12.6865 -67.0358 342° North  Level FlightAware Approximate
Sat 10:48:00 PM -12.5704 -67.0740 342° North  Level FlightAware Approximate
Sat 10:49:00 PM -12.4543 -67.1121 342° North  Level FlightAware Approximate
Sat 10:50:00 PM -12.3382 -67.1502 342° North  Level FlightAware Approximate
Sat 10:51:00 PM -12.2220 -67.1883 342° North  Level FlightAware Approximate
Sat 10:52:00 PM -12.1059 -67.2263 342° North  Level FlightAware Approximate
Sat 10:53:00 PM -11.9898 -67.2643 342° North  Level FlightAware Approximate
Sat 10:54:00 PM -11.8736 -67.3023 342° North  Level FlightAware Approximate
Sat 10:55:00 PM -11.7575 -67.3402 342° North  Level FlightAware Approximate
Sat 10:56:00 PM -11.6413 -67.3782 342° North  Level FlightAware Approximate
Sat 10:57:00 PM -11.5252 -67.4160 342° North  Level FlightAware Approximate
Sat 10:58:00 PM -11.4090 -67.4539 342° North  Level FlightAware Approximate
Sat 10:59:00 PM -11.2928 -67.4917 342° North  Level FlightAware Approximate
Sat 11:00:00 PM -11.1767 -67.5295 342° North  Level FlightAware Approximate
Sat 11:01:00 PM -11.0605 -67.5673 342° North  Level FlightAware Approximate
Sat 11:02:00 PM -10.9443 -67.6050 342° North  Level FlightAware Approximate
Sat 11:03:00 PM -10.8281 -67.6427 342° North  Level FlightAware Approximate
Sat 11:04:00 PM -10.7119 -67.6804 342° North  Level FlightAware Approximate
Sat 11:05:00 PM -10.5957 -67.7180 342° North  Level FlightAware Approximate
Sat 11:06:00 PM -10.4795 -67.7556 342° North  Level FlightAware Approximate
Sat 11:07:00 PM -10.3633 -67.7932 342° North  Level FlightAware Approximate
Sat 11:08:00 PM -10.2471 -67.8307 342° North  Level FlightAware Approximate
Sat 11:09:00 PM -10.1309 -67.8683 342° North  Level FlightAware Approximate
Sat 11:10:00 PM -10.0147 -67.9058 342° North  Level FlightAware Approximate
Sat 11:11:00 PM -9.8984 -67.9432 342° North  Level FlightAware Approximate
Sat 11:12:00 PM -9.7822 -67.9807 342° North  Level FlightAware Approximate
Sat 11:13:00 PM -9.6660 -68.0181 342° North  Level FlightAware Approximate
Sat 11:14:00 PM -9.5497 -68.0555 342° North  Level FlightAware Approximate
Sat 11:15:00 PM -9.4335 -68.0929 342° North  Level FlightAware Approximate
Sat 11:16:00 PM -9.3173 -68.1302 342° North  Level FlightAware Approximate
Sat 11:17:00 PM -9.2010 -68.1675 342° North  Level FlightAware Approximate
Sat 11:18:00 PM -9.0848 -68.2048 342° North  Level FlightAware Approximate
Sat 11:19:00 PM -8.9685 -68.2421 342° North  Level FlightAware Approximate
Sat 11:20:00 PM -8.8522 -68.2793 342° North  Level FlightAware Approximate
Sat 11:21:00 PM -8.7360 -68.3166 342° North  Level FlightAware Approximate
Sat 11:22:00 PM -8.6197 -68.3538 342° North  Level FlightAware Approximate
Sat 11:23:00 PM -8.5034 -68.3909 342° North  Level FlightAware Approximate
Sat 11:24:00 PM -8.3872 -68.4281 342° North  Level FlightAware Approximate
Sat 11:25:00 PM -8.2709 -68.4652 342° North  Level FlightAware Approximate
Sat 11:26:00 PM -8.1546 -68.5023 342° North  Level FlightAware Approximate
Sat 11:27:00 PM -8.0383 -68.5394 342° North  Level FlightAware Approximate
Sat 11:28:00 PM -7.9220 -68.5765 342° North  Level FlightAware Approximate
Sat 11:29:00 PM -7.8057 -68.6135 342° North  Level FlightAware Approximate
Sat 11:30:00 PM -7.6894 -68.6506 342° North  Level FlightAware Approximate
Sat 11:31:00 PM -7.5732 -68.6876 342° North  Level FlightAware Approximate
Sat 11:32:00 PM -7.4569 -68.7245 342° North  Level FlightAware Approximate
Sat 11:33:00 PM -7.3405 -68.7615 343° North  Level FlightAware Approximate
Sat 11:34:00 PM -7.2242 -68.7985 343° North  Level FlightAware Approximate
Sat 11:35:00 PM -7.1079 -68.8354 343° North  Level FlightAware Approximate
Sat 11:36:00 PM -6.9916 -68.8723 343° North  Level FlightAware Approximate
Sat 11:37:00 PM -6.8753 -68.9092 343° North  Level FlightAware Approximate
Sat 11:38:00 PM -6.7590 -68.9461 343° North  Level FlightAware Approximate
Sat 11:39:00 PM -6.6427 -68.9829 343° North  Level FlightAware Approximate
Sat 11:40:00 PM -6.5264 -69.0198 343° North  Level FlightAware Approximate
Sat 11:41:00 PM -6.4100 -69.0566 343° North  Level FlightAware Approximate
Sat 11:42:00 PM -6.2937 -69.0934 343° North  Level FlightAware Approximate
Sat 11:43:00 PM -6.1774 -69.1302 343° North  Level FlightAware Approximate
Sat 11:44:00 PM -6.0610 -69.1669 343° North  Level FlightAware Approximate
Sat 11:45:00 PM -5.9447 -69.2037 343° North  Level FlightAware Approximate
Sat 11:46:00 PM -5.8284 -69.2404 343° North  Level FlightAware Approximate
Sat 11:47:00 PM -5.7120 -69.2772 343° North  Level FlightAware Approximate
Sat 11:48:00 PM -5.5957 -69.3139 343° North  Level FlightAware Approximate
Sat 11:49:00 PM -5.4793 -69.3505 343° North  Level FlightAware Approximate
Sat 11:50:00 PM -5.3630 -69.3872 343° North  Level FlightAware Approximate
Sat 11:51:00 PM -5.2466 -69.4239 343° North  Level FlightAware Approximate
Sat 11:52:00 PM -5.1303 -69.4605 343° North  Level FlightAware Approximate
Sat 11:53:00 PM -5.0139 -69.4972 343° North  Level FlightAware Approximate
Sat 11:54:00 PM -4.8976 -69.5338 343° North  Level FlightAware Approximate
Sat 11:55:00 PM -4.7816 -69.5703 343° North  Level FlightAware Approximate
Sat 11:56:00 PM -4.6656 -69.6068 343° North  Level FlightAware Approximate
Sat 11:57:00 PM -4.5496 -69.6433 343° North  Level FlightAware Approximate
Sat 11:58:00 PM -4.4337 -69.6797 343° North  Level FlightAware Approximate
Sat 11:59:00 PM -4.3177 -69.7162 343° North  Level FlightAware Approximate
Sun 12:00:00 AM -4.2017 -69.7526 343° North  Level FlightAware Approximate
Sun 12:01:00 AM -4.0857 -69.7890 343° North  Level FlightAware Approximate
Sun 12:02:00 AM -3.9697 -69.8254 343° North  Level FlightAware Approximate
Sun 12:03:00 AM -3.8537 -69.8618 343° North  Level FlightAware Approximate
Sun 12:04:00 AM -3.7377 -69.8982 343° North  Level FlightAware Approximate
Sun 12:05:00 AM -3.6218 -69.9346 343° North  Level FlightAware Approximate
Sun 12:06:00 AM -3.5058 -69.9710 343° North  Level FlightAware Approximate
Sun 12:07:00 AM -3.3898 -70.0073 343° North  Level FlightAware Approximate
Sun 12:08:00 AM -3.2738 -70.0437 343° North  Level FlightAware Approximate
Sun 12:09:00 AM -3.1578 -70.0800 343° North  Level FlightAware Approximate
Sun 12:10:00 AM -3.0418 -70.1164 343° North  Level FlightAware Approximate
Sun 12:11:00 AM -2.9258 -70.1527 343° North  Level FlightAware Approximate
Sun 12:12:00 AM -2.8098 -70.1890 343° North  Level FlightAware Approximate
Sun 12:13:00 AM -2.6938 -70.2253 343° North  Level FlightAware Approximate
Sun 12:14:00 AM -2.5778 -70.2616 343° North  Level FlightAware Approximate
Sun 12:15:00 AM -2.4618 -70.2979 343° North  Level FlightAware Approximate
Sun 12:16:00 AM -2.3458 -70.3342 343° North  Level FlightAware Approximate
Sun 12:17:00 AM -2.2298 -70.3705 343° North  Level FlightAware Approximate
Sun 12:18:00 AM -2.1138 -70.4068 343° North  Level FlightAware Approximate
Sun 12:19:00 AM -1.9978 -70.4431 343° North  Level FlightAware Approximate
Sun 12:20:00 AM -1.8817 -70.4794 343° North  Level FlightAware Approximate
Sun 12:21:00 AM -1.7657 -70.5156 343° North  Level FlightAware Approximate
Sun 12:22:00 AM -1.6497 -70.5519 343° North  Level FlightAware Approximate
Sun 12:23:00 AM -1.5337 -70.5882 343° North  Level FlightAware Approximate
Sun 12:24:00 AM -1.4177 -70.6244 343° North  Level FlightAware Approximate
Sun 12:25:00 AM -1.3017 -70.6607 343° North  Level FlightAware Approximate
Sun 12:26:00 AM -1.1857 -70.6969 343° North  Level FlightAware Approximate
Sun 12:27:00 AM -1.0697 -70.7332 343° North  Level FlightAware Approximate
Sun 12:28:00 AM -0.9537 -70.7694 343° North  Level FlightAware Approximate
Sun 12:29:00 AM -0.8377 -70.8056 343° North  Level FlightAware Approximate
Sun 12:30:00 AM -0.7217 -70.8419 343° North  Level FlightAware Approximate
Sun 12:31:00 AM -0.6056 -70.8781 343° North  Level FlightAware Approximate
Sun 12:32:00 AM -0.4896 -70.9144 343° North  Level FlightAware Approximate
Sun 12:33:00 AM -0.3736 -70.9506 343° North  Level FlightAware Approximate
Sun 12:34:00 AM -0.2576 -70.9868 343° North  Level FlightAware Approximate
Sun 12:35:00 AM -0.1416 -71.0230 343° North  Level FlightAware Approximate
Sun 12:36:00 AM -0.0256 -71.0593 343° North  Level FlightAware Approximate
Sun 12:37:00 AM 0.0904 -71.0955 343° North  Level FlightAware Approximate
Sun 12:38:00 AM 0.2064 -71.1317 343° North  Level FlightAware Approximate
Sun 12:39:00 AM 0.3224 -71.1680 343° North  Level FlightAware Approximate
Sun 12:40:00 AM 0.4385 -71.2042 343° North  Level FlightAware Approximate
Sun 12:41:00 AM 0.5545 -71.2404 343° North  Level FlightAware Approximate
Sun 12:42:00 AM 0.6705 -71.2767 343° North  Level FlightAware Approximate
Sun 12:43:00 AM 0.7865 -71.3129 343° North  Level FlightAware Approximate
Sun 12:44:00 AM 0.9025 -71.3492 343° North  Level FlightAware Approximate
Sun 12:45:00 AM 1.0185 -71.3854 343° North  Level FlightAware Approximate
Sun 12:46:00 AM 1.1345 -71.4216 343° North  Level FlightAware Approximate
Sun 12:47:00 AM 1.2505 -71.4579 343° North  Level FlightAware Approximate
Sun 12:48:00 AM 1.3665 -71.4941 343° North  Level FlightAware Approximate
Sun 12:49:00 AM 1.4825 -71.5304 343° North  Level FlightAware Approximate
Sun 12:50:00 AM 1.5985 -71.5666 343° North  Level FlightAware Approximate
Sun 12:51:00 AM 1.7146 -71.6029 343° North  Level FlightAware Approximate
Sun 12:52:00 AM 1.8306 -71.6392 343° North  Level FlightAware Approximate
Sun 12:53:00 AM 1.9466 -71.6754 343° North  Level FlightAware Approximate
Sun 12:54:00 AM 2.0626 -71.7117 343° North  Level FlightAware Approximate
Sun 12:55:00 AM 2.1786 -71.7480 343° North  Level FlightAware Approximate
Sun 12:56:00 AM 2.2946 -71.7843 343° North  Level FlightAware Approximate
Sun 12:57:00 AM 2.4106 -71.8206 343° North  Level FlightAware Approximate
Sun 12:58:00 AM 2.5266 -71.8569 343° North  Level FlightAware Approximate
Sun 12:59:00 AM 2.6426 -71.8932 343° North  Level FlightAware Approximate
Sun 01:00:00 AM 2.7586 -71.9295 343° North  Level FlightAware Approximate
Sun 01:01:00 AM 2.8746 -71.9658 343° North  Level FlightAware Approximate
Sun 01:02:00 AM 2.9906 -72.0022 343° North  Level FlightAware Approximate
Sun 01:03:00 AM 3.1066 -72.0385 343° North  Level FlightAware Approximate
Sun 01:04:00 AM 3.2226 -72.0748 343° North  Level FlightAware Approximate
Sun 01:05:00 AM 3.3386 -72.1112 343° North  Level FlightAware Approximate
Sun 01:06:00 AM 3.4546 -72.1475 343° North  Level FlightAware Approximate
Sun 01:07:00 AM 3.5706 -72.1839 343° North  Level FlightAware Approximate
Sun 01:08:00 AM 3.6866 -72.2203 343° North  Level FlightAware Approximate
Sun 01:09:00 AM 3.8026 -72.2567 343° North  Level FlightAware Approximate
Sun 01:10:00 AM 3.9186 -72.2931 343° North  Level FlightAware Approximate
Sun 01:11:00 AM 4.0344 -72.3294 343° North  Level FlightAware Approximate
Sun 01:12:00 AM 4.1501 -72.3658 343° North  Level FlightAware Approximate
Sun 01:13:00 AM 4.2659 -72.4022 343° North  Level FlightAware Approximate
Sun 01:14:00 AM 4.3817 -72.4385 343° North  Level FlightAware Approximate
Sun 01:15:00 AM 4.4975 -72.4749 343° North  Level FlightAware Approximate
Sun 01:16:00 AM 4.6133 -72.5113 343° North  Level FlightAware Approximate
Sun 01:17:00 AM 4.7291 -72.5479 342° North  Level FlightAware Approximate
Sun 01:18:00 AM 4.8448 -72.5846 342° North  Level FlightAware Approximate
Sun 01:19:00 AM 4.9605 -72.6214 342° North  Level FlightAware Approximate
Sun 01:20:00 AM 5.0761 -72.6582 342° North  Level FlightAware Approximate
Sun 01:21:00 AM 5.1918 -72.6950 342° North  Level FlightAware Approximate
Sun 01:22:00 AM 5.3075 -72.7318 342° North  Level FlightAware Approximate
Sun 01:23:00 AM 5.4231 -72.7687 342° North  Level FlightAware Approximate
Sun 01:24:00 AM 5.5388 -72.8055 342° North  Level FlightAware Approximate
Sun 01:25:00 AM 5.6545 -72.8424 342° North  Level FlightAware Approximate
Sun 01:26:00 AM 5.7701 -72.8792 342° North  Level FlightAware Approximate
Sun 01:27:00 AM 5.8858 -72.9161 342° North  Level FlightAware Approximate
Sun 01:28:00 AM 6.0014 -72.9530 342° North  Level FlightAware Approximate
Sun 01:29:00 AM 6.1171 -72.9899 342° North  Level FlightAware Approximate
Sun 01:30:00 AM 6.2327 -73.0269 342° North  Level FlightAware Approximate
Sun 01:31:00 AM 6.3484 -73.0638 342° North  Level FlightAware Approximate
Sun 01:32:00 AM 6.4640 -73.1008 342° North  Level FlightAware Approximate
Sun 01:33:00 AM 6.5797 -73.1378 342° North  Level FlightAware Approximate
Sun 01:34:00 AM 6.6953 -73.1748 342° North  Level FlightAware Approximate
Sun 01:35:00 AM 6.8109 -73.2118 342° North  Level FlightAware Approximate
Sun 01:36:00 AM 6.9266 -73.2488 342° North  Level FlightAware Approximate
Sun 01:37:00 AM 7.0422 -73.2859 342° North  Level FlightAware Approximate
Sun 01:38:00 AM 7.1578 -73.3230 342° North  Level FlightAware Approximate
Sun 01:39:00 AM 7.2734 -73.3601 342° North  Level FlightAware Approximate
Sun 01:40:00 AM 7.3891 -73.3972 342° North  Level FlightAware Approximate
Sun 01:41:00 AM 7.5047 -73.4343 342° North  Level FlightAware Approximate
Sun 01:42:00 AM 7.6203 -73.4715 342° North  Level FlightAware Approximate
Sun 01:43:00 AM 7.7359 -73.5086 342° North  Level FlightAware Approximate
Sun 01:44:00 AM 7.8515 -73.5458 342° North  Level FlightAware Approximate
Sun 01:45:00 AM 7.9671 -73.5830 342° North  Level FlightAware Approximate
Sun 01:46:00 AM 8.0827 -73.6203 342° North  Level FlightAware Approximate
Sun 01:47:00 AM 8.1983 -73.6575 342° North  Level FlightAware Approximate
Sun 01:48:00 AM 8.3139 -73.6948 342° North  Level FlightAware Approximate
Sun 01:49:00 AM 8.4295 -73.7321 342° North  Level FlightAware Approximate
Sun 01:50:00 AM 8.5454 -73.7686 343° North  Level FlightAware Approximate
Sun 01:51:00 AM 8.6612 -73.8052 343° North  Level FlightAware Approximate
Sun 01:52:00 AM 8.7771 -73.8417 343° North  Level FlightAware Approximate
Sun 01:53:00 AM 8.8929 -73.8783 343° North  Level FlightAware Approximate
Sun 01:54:00 AM 9.0087 -73.9148 343° North  Level FlightAware Approximate
Sun 01:55:00 AM 9.1245 -73.9514 343° North  Level FlightAware Approximate
Sun 01:56:00 AM 9.2404 -73.9881 343° North  Level FlightAware Approximate
Sun 01:57:00 AM 9.3562 -74.0247 343° North  Level FlightAware Approximate
Sun 01:58:00 AM 9.4719 -74.0617 343° North  Level FlightAware Approximate
Sun 01:59:00 AM 9.5877 -74.0987 342° North  Level FlightAware Approximate
Sun 02:00:00 AM 9.7034 -74.1357 342° North  Level FlightAware Approximate
Sun 02:01:00 AM 9.8191 -74.1728 342° North  Level FlightAware Approximate
Sun 02:02:00 AM 9.9348 -74.2098 342° North  Level FlightAware Approximate
Sun 02:03:00 AM 10.0505 -74.2469 342° North  Level FlightAware Approximate
Sun 02:04:00 AM 10.1662 -74.2841 342° North  Level FlightAware Approximate
Sun 02:05:00 AM 10.2819 -74.3212 342° North  Level FlightAware Approximate
Sun 02:06:00 AM 10.3976 -74.3584 342° North  Level FlightAware Approximate
Sun 02:07:00 AM 10.5133 -74.3956 342° North  Level FlightAware Approximate
Sun 02:08:00 AM 10.6290 -74.4329 342° North  Level FlightAware Approximate
Sun 02:09:00 AM 10.7446 -74.4702 342° North  Level FlightAware Approximate
Sun 02:10:00 AM 10.8603 -74.5074 342° North  Level FlightAware Approximate
Sun 02:11:00 AM 10.9760 -74.5448 342° North  Level FlightAware Approximate
Sun 02:12:00 AM 11.0917 -74.5821 342° North  Level FlightAware Approximate
Sun 02:13:00 AM 11.2073 -74.6195 342° North  Level FlightAware Approximate
Sun 02:14:00 AM 11.3230 -74.6570 342° North  Level FlightAware Approximate
Sun 02:15:00 AM 11.4386 -74.6945 342° North  Level FlightAware Approximate
Sun 02:16:00 AM 11.5542 -74.7320 342° North  Level FlightAware Approximate
Sun 02:17:00 AM 11.6699 -74.7695 342° North  Level FlightAware Approximate
Sun 02:18:00 AM 11.7855 -74.8071 342° North  Level FlightAware Approximate
Sun 02:19:00 AM 11.9011 -74.8447 342° North  Level FlightAware Approximate
Sun 02:20:00 AM 12.0167 -74.8824 342° North  Level FlightAware Approximate
Sun 02:21:00 AM 12.1323 -74.9201 342° North  Level FlightAware Approximate
Sun 02:22:00 AM 12.2479 -74.9578 342° North  Level FlightAware Approximate
Sun 02:23:00 AM 12.3635 -74.9955 342° North  Level FlightAware Approximate
Sun 02:24:00 AM 12.4791 -75.0333 342° North  Level FlightAware Approximate
Sun 02:25:00 AM 12.5947 -75.0711 342° North  Level FlightAware Approximate
Sun 02:26:00 AM 12.7099 -75.1088 342° North  Level FlightAware Approximate
Sun 02:27:00 AM 12.8251 -75.1466 342° North  Level FlightAware Approximate
Sun 02:28:00 AM 12.9403 -75.1844 342° North  Level FlightAware Approximate
Sun 02:29:00 AM 13.0555 -75.2222 342° North  Level FlightAware Approximate
Sun 02:30:00 AM 13.1707 -75.2601 342° North  Level FlightAware Approximate
Sun 02:31:00 AM 13.2859 -75.2980 342° North  Level FlightAware Approximate
Sun 02:32:00 AM 13.4010 -75.3359 342° North  Level FlightAware Approximate
Sun 02:33:00 AM 13.5162 -75.3739 342° North  Level FlightAware Approximate
Sun 02:34:00 AM 13.6314 -75.4119 342° North  Level FlightAware Approximate
Sun 02:35:00 AM 13.7465 -75.4499 342° North  Level FlightAware Approximate
Sun 02:36:00 AM 13.8617 -75.4880 342° North  Level FlightAware Approximate
Sun 02:37:00 AM 13.9768 -75.5261 342° North  Level FlightAware Approximate
Sun 02:38:00 AM 14.0919 -75.5643 342° North  Level FlightAware Approximate
Sun 02:39:00 AM 14.2071 -75.6025 342° North  Level FlightAware Approximate
Sun 02:40:00 AM 14.3222 -75.6407 342° North  Level FlightAware Approximate
Sun 02:41:00 AM 14.4373 -75.6790 342° North  Level FlightAware Approximate
Sun 02:42:00 AM 14.5524 -75.7173 342° North  Level FlightAware Approximate
Sun 02:43:00 AM 14.6675 -75.7556 342° North  Level FlightAware Approximate
Sun 02:44:00 AM 14.7826 -75.7940 342° North  Level FlightAware Approximate
Sun 02:45:00 AM 14.8977 -75.8325 342° North  Level FlightAware Approximate
Sun 02:46:00 AM 15.0128 -75.8710 342° North  Level FlightAware Approximate
Sun 02:47:00 AM 15.1277 -75.9100 342° North  Level FlightAware Approximate
Sun 02:48:00 AM 15.2426 -75.9491 342° North  Level FlightAware Approximate
Sun 02:49:00 AM 15.3575 -75.9882 342° North  Level FlightAware Approximate
Sun 02:50:00 AM 15.4724 -76.0274 342° North  Level FlightAware Approximate
Sun 02:51:00 AM 15.5873 -76.0665 342° North  Level FlightAware Approximate
Sun 02:52:00 AM 15.7022 -76.1058 342° North  Level FlightAware Approximate
Sun 02:53:00 AM 15.8171 -76.1451 342° North  Level FlightAware Approximate
Sun 02:54:00 AM 15.9320 -76.1844 342° North  Level FlightAware Approximate
Sun 02:55:00 AM 16.0468 -76.2238 342° North  Level FlightAware Approximate
Sun 02:56:00 AM 16.1617 -76.2632 342° North  Level FlightAware Approximate
Sun 02:57:00 AM 16.2766 -76.3026 342° North  Level FlightAware Approximate
Sun 02:58:00 AM 16.3914 -76.3421 342° North  Level FlightAware Approximate
Sun 02:59:00 AM 16.5062 -76.3817 342° North  Level FlightAware Approximate
Sun 03:00:00 AM 16.6211 -76.4213 342° North  Level FlightAware Approximate
Sun 03:01:00 AM 16.7359 -76.4610 342° North  Level FlightAware Approximate
Sun 03:02:00 AM 16.8507 -76.5007 342° North  Level FlightAware Approximate
Sun 03:03:00 AM 16.9655 -76.5404 342° North  Level FlightAware Approximate
Sun 03:04:00 AM 17.0803 -76.5802 342° North  Level FlightAware Approximate
Sun 03:05:00 AM 17.1951 -76.6200 342° North  Level FlightAware Approximate
Sun 03:06:00 AM 17.3101 -76.6593 342° North  Level FlightAware Approximate
Sun 03:07:00 AM 17.4251 -76.6984 342° North  Level FlightAware Approximate
Sun 03:08:00 AM 17.5402 -76.7374 342° North  Level FlightAware Approximate
Sun 03:09:00 AM 17.6552 -76.7766 342° North  Level FlightAware Approximate
Sun 03:10:00 AM 17.7703 -76.8158 342° North  Level FlightAware Approximate
Sun 03:11:00 AM 17.8853 -76.8550 342° North  Level FlightAware Approximate
Sun 03:12:00 AM 18.0003 -76.8943 342° North  Level FlightAware Approximate
Sun 03:13:00 AM 18.1153 -76.9336 342° North  Level FlightAware Approximate
Sun 03:14:00 AM 18.2303 -76.9730 342° North  Level FlightAware Approximate
Sun 03:15:00 AM 18.3453 -77.0124 342° North  Level FlightAware Approximate
Sun 03:16:00 AM 18.4603 -77.0519 342° North  Level FlightAware Approximate
Sun 03:17:00 AM 18.5753 -77.0915 342° North  Level FlightAware Approximate
Sun 03:18:00 AM 18.6903 -77.1311 342° North  Level FlightAware Approximate
Sun 03:19:00 AM 18.8052 -77.1707 342° North  Level FlightAware Approximate
Sun 03:20:00 AM 18.9202 -77.2104 342° North  Level FlightAware Approximate
Sun 03:21:00 AM 19.0351 -77.2502 342° North  Level FlightAware Approximate
Sun 03:22:00 AM 19.1501 -77.2900 342° North  Level FlightAware Approximate
Sun 03:23:00 AM 19.2650 -77.3299 342° North  Level FlightAware Approximate
Sun 03:24:00 AM 19.3799 -77.3698 342° North  Level FlightAware Approximate
Sun 03:25:00 AM 19.4948 -77.4100 341° North  Level FlightAware Approximate
Sun 03:26:00 AM 19.6094 -77.4510 341° North  Level FlightAware Approximate
Sun 03:27:00 AM 19.7240 -77.4920 341° North  Level FlightAware Approximate
Sun 03:28:00 AM 19.8386 -77.5330 341° North  Level FlightAware Approximate
Sun 03:29:00 AM 19.9532 -77.5742 341° North  Level FlightAware Approximate
Sun 03:30:00 AM 20.0678 -77.6153 341° North  Level FlightAware Approximate
Sun 03:31:00 AM 20.1823 -77.6566 341° North  Level FlightAware Approximate
Sun 03:32:00 AM 20.2969 -77.6979 341° North  Level FlightAware Approximate
Sun 03:33:00 AM 20.4114 -77.7393 341° North  Level FlightAware Approximate
Sun 03:34:00 AM 20.5260 -77.7807 341° North  Level FlightAware Approximate
Sun 03:35:00 AM 20.6406 -77.8221 341° North  Level FlightAware Approximate
Sun 03:36:00 AM 20.7551 -77.8635 341° North  Level FlightAware Approximate
Sun 03:37:00 AM 20.8697 -77.9050 341° North  Level FlightAware Approximate
Sun 03:38:00 AM 20.9842 -77.9465 341° North  Level FlightAware Approximate
Sun 03:39:00 AM 21.0987 -77.9882 341° North  Level FlightAware Approximate
Sun 03:40:00 AM 21.2133 -78.0299 341° North  Level FlightAware Approximate
Sun 03:41:00 AM 21.3278 -78.0716 341° North  Level FlightAware Approximate
Sun 03:42:00 AM 21.4423 -78.1134 341° North  Level FlightAware Approximate
Sun 03:43:00 AM 21.5568 -78.1553 341° North  Level FlightAware Approximate
Sun 03:44:00 AM 21.6712 -78.1973 341° North  Level FlightAware Approximate
Sun 03:45:00 AM 21.7853 -78.2391 341° North  Level FlightAware Approximate
Sun 03:46:00 AM 21.8994 -78.2811 341° North  Level FlightAware Approximate
Sun 03:47:00 AM 22.0135 -78.3231 341° North  Level FlightAware Approximate
Sun 03:48:00 AM 22.1276 -78.3652 341° North  Level FlightAware Approximate
Sun 03:49:00 AM 22.2416 -78.4073 341° North  Level FlightAware Approximate
Sun 03:50:00 AM 22.3556 -78.4495 341° North  Level FlightAware Approximate
Sun 03:51:00 AM 22.4697 -78.4918 341° North  Level FlightAware Approximate
Sun 03:52:00 AM 22.5837 -78.5342 341° North  Level FlightAware Approximate
Sun 03:53:00 AM 22.6977 -78.5766 341° North  Level FlightAware Approximate
Sun 03:54:00 AM 22.8117 -78.6191 341° North  Level FlightAware Approximate
Sun 03:55:00 AM 22.9257 -78.6617 341° North  Level FlightAware Approximate
Sun 03:55:15 AM 22.5419 -78.0239 341° North 443 510 36,000  Level Miami Center
Sun 03:56:00 AM 23.0396 -78.7043 341° North  Level FlightAware Approximate
Sun 03:56:16 AM 22.6250 -78.0900 324° Northwest 442 509 36,000  Level Miami Center
Sun 03:57:00 AM 23.1536 -78.7470 341° North  Level FlightAware Approximate
Sun 03:57:15 AM 22.7350 -78.1719 326° Northwest 436 502 36,000  Level Miami Center
Sun 03:58:00 AM 23.2676 -78.7898 341° North  Level FlightAware Approximate
Sun 03:58:15 AM 22.8369 -78.2406 328° Northwest 441 507 36,000  Level Miami Center
Sun 03:59:00 AM 23.3815 -78.8327 341° North  Level FlightAware Approximate
Sun 03:59:15 AM 22.9386 -78.3117 327° Northwest 434 499 36,000  Level Miami Center
Sun 04:00:00 AM 23.4954 -78.8756 341° North  Level FlightAware Approximate
Sun 04:00:17 AM 23.0464 -78.3986 323° Northwest 443 510 36,000  Level Miami Center
Sun 04:01:17 AM 23.1419 -78.4517 333° Northwest 429 494 36,000  Level Miami Center
Sun 04:02:15 AM 23.2603 -78.5167 333° Northwest 435 501 36,000  Level Miami Center
Sun 04:03:16 AM 23.3789 -78.5700 338° Northwest 442 509 36,000  Level Miami Center
Sun 04:04:17 AM 23.4892 -78.6078 343° North 436 502 36,000  Level Miami Center
Sun 04:05:17 AM 23.6075 -78.6617 337° Northwest 447 514 36,000  Level Miami Center
Sun 04:06:15 AM 23.7219 -78.7086 339° North 447 514 36,000  Level Miami Center
Sun 04:07:17 AM 23.8406 -78.7603 338° Northwest 447 514 36,000  Level Miami Center
Sun 04:08:15 AM 23.9528 -78.8075 339° North 447 514 36,000  Level Miami Center
Sun 04:09:17 AM 24.0731 -78.8617 338° Northwest 447 514 36,000  Level Miami Center
Sun 04:10:17 AM 24.1894 -78.9092 340° North 453 521 36,000  Level Miami Center
Sun 04:11:18 AM 24.3039 -78.9589 338° Northwest 447 514 36,000  Level Miami Center
Sun 04:12:15 AM 24.4200 -79.0086 339° North 442 509 36,000  Level Miami Center
Sun 04:13:16 AM 24.5364 -79.0586 339° North 442 509 36,000  Level Miami Center
Sun 04:14:15 AM 24.6547 -79.1111 338° Northwest 450 518 36,000  Level Miami Center
Sun 04:15:16 AM 24.7731 -79.1567 341° North 450 518 36,000  Level Miami Center
Sun 04:16:15 AM 24.8872 -79.2092 337° Northwest 450 518 36,000  Level Miami Center
Sun 04:17:15 AM 25.0014 -79.2572 339° North 450 518 36,000  Level Miami Center
Sun 04:18:15 AM 25.1194 -79.3100 338° Northwest 450 518 36,000  Level Miami Center
Sun 04:19:15 AM 25.2358 -79.3583 339° North 450 518 36,000  Level Miami Center
Sun 04:20:15 AM 25.3519 -79.4114 338° Northwest 450 518 36,000  Level Miami Center
Sun 04:21:15 AM 25.4658 -79.4619 338° Northwest 450 518 36,000  Level Miami Center
Sun 04:22:15 AM 25.5842 -79.5128 339° North 450 518 36,000  Level Miami Center
Sun 04:23:16 AM 25.7000 -79.5661 337° Northwest 450 518 36,000  Level Miami Center
Sun 04:24:17 AM 25.8142 -79.6150 339° North 450 518 36,000  Level Miami Center
Sun 04:25:16 AM 25.9300 -79.6661 338° Northwest 450 518 36,000  Level Miami Center
Sun 04:26:18 AM 26.0461 -79.7172 338° Northwest 450 518 36,000  Level Miami Center
Sun 04:27:18 AM 26.1600 -79.7686 338° Northwest 450 518 36,000  Level Miami Center
Sun 04:28:17 AM 26.2864 -79.8228 339° North 444 511 36,000  Level Miami Center
Sun 04:29:18 AM 26.3878 -79.8694 338° Northwest 444 511 36,000  Level Miami Center
Sun 04:30:16 AM 26.5139 -79.9258 338° Northwest 439 505 36,000  Level Miami Center
Sun 04:31:18 AM 26.6133 -79.9728 337° Northwest 434 499 36,000  Level Miami Center
Sun 04:32:15 AM 26.7394 -80.0294 338° Northwest 434 499 36,000  Level Miami Center
Sun 04:33:16 AM 26.8492 -80.0767 339° North 426 490 36,000  Level Miami Center
Sun 04:34:16 AM 26.9606 -80.1286 337° Northwest 426 490 36,000  Level Miami Center
Sun 04:35:18 AM 27.0619 -80.1736 338° Northwest 431 496 36,000  Level Miami Center
Sun 04:36:18 AM 27.1736 -80.2258 337° Northwest 431 496 36,000  Level Miami Center
Sun 04:37:15 AM 27.2831 -80.2758 338° Northwest 431 496 36,000  Level Miami Center
Sun 04:38:15 AM 27.3967 -80.3306 337° Northwest 431 496 36,000  Level Miami Center
Sun 04:39:15 AM 27.5081 -80.3783 339° North 431 496 36,000  Level Miami Center
Sun 04:40:15 AM 27.6239 -80.4242 341° North 431 496 36,000  Level Miami Center
Sun 04:41:15 AM 27.7375 -80.4697 340° North 431 496 36,000  Level Miami Center
Sun 04:42:15 AM 27.8514 -80.5158 340° North 426 490 36,000  Level Miami Center
Sun 04:43:15 AM 27.9650 -80.5617 340° North 426 490 36,000  Level Miami Center
Sun 04:45:27 AM 28.2183 -80.6619 341° North 434 499 36,000  Level Jacksonville Center
Sun 04:46:27 AM 28.3317 -80.7089 340° North 434 499 36,000  Level Jacksonville Center
Sun 04:47:27 AM 28.4619 -80.7650 339° North 441 507 36,000  Level Jacksonville Center
Sun 04:48:27 AM 28.5733 -80.8100 340° North 441 507 36,000  Level Jacksonville Center
Sun 04:49:27 AM 28.6847 -80.8575 339° North 431 496 36,000  Level Jacksonville Center
Sun 04:50:27 AM 28.8003 -80.9047 340° North 431 496 36,000  Level Jacksonville Center
Sun 04:51:27 AM 28.9094 -80.9500 340° North 431 496 36,000  Level Jacksonville Center
Sun 04:52:27 AM 29.0228 -80.9953 341° North 431 496 36,000  Level Jacksonville Center
Sun 04:53:27 AM 29.1342 -81.0456 338° Northwest 431 496 36,000  Level Jacksonville Center
Sun 04:54:27 AM 29.2456 -81.0886 341° North 431 496 36,000  Level Jacksonville Center
Sun 04:55:27 AM 29.3528 -81.1414 337° Northwest 431 496 36,000  Level Jacksonville Center
Sun 04:56:27 AM 29.4578 -81.2064 332° Northwest 425 489 36,000  Level Jacksonville Center
Sun 04:57:27 AM 29.5611 -81.2739 330° Northwest 420 483 36,000  Level Jacksonville Center
Sun 04:58:27 AM 29.6642 -81.3367 332° Northwest 420 483 36,000  Level Jacksonville Center
Sun 04:59:27 AM 29.7672 -81.3994 332° Northwest 425 489 36,000  Level Jacksonville Center
Sun 05:00:27 AM 29.8722 -81.4650 332° Northwest 425 489 36,000  Level Jacksonville Center
Sun 05:01:27 AM 29.9733 -81.5283 332° Northwest 425 489 36,000  Level Jacksonville Center
Sun 05:02:27 AM 30.0783 -81.5917 332° Northwest 425 489 36,000  Level Jacksonville Center
Sun 05:03:27 AM 30.1811 -81.6550 332° Northwest 425 489 36,000  Level Jacksonville Center
Sun 05:04:27 AM 30.2756 -81.7117 333° Northwest 425 489 36,000  Level Jacksonville Center
Sun 05:05:27 AM 30.3806 -81.7753 332° Northwest 425 489 36,000  Level Jacksonville Center
Sun 05:06:27 AM 30.4836 -81.8392 332° Northwest 420 483 36,000  Level Jacksonville Center
Sun 05:07:27 AM 30.5883 -81.9106 330° Northwest 427 491 36,000  Level Jacksonville Center
Sun 05:08:27 AM 30.6933 -81.9744 332° Northwest 427 491 36,000  Level Jacksonville Center
Sun 05:09:27 AM 30.7961 -82.0389 332° Northwest 421 484 36,000  Level Jacksonville Center
Sun 05:10:27 AM 30.9031 -82.0961 335° Northwest 421 484 36,000  Level Jacksonville Center
Sun 05:11:27 AM 31.0139 -82.1436 340° North 421 484 36,000  Level Jacksonville Center
Sun 05:12:27 AM 31.1247 -82.1911 340° North 421 484 36,000  Level Jacksonville Center
Sun 05:13:27 AM 31.2358 -82.2389 340° North 416 479 36,000  Level Jacksonville Center
Sun 05:14:27 AM 31.3467 -82.2869 340° North 416 479 36,000  Level Jacksonville Center
Sun 05:16:18 AM 31.5517 -82.3744 340° North 432 497 36,000  Level Atlanta Center
Sun 05:17:18 AM 31.6528 -82.4408 331° Northwest 426 490 36,000  Level Atlanta Center
Sun 05:18:18 AM 31.7372 -82.5250 320° Northwest 412 474 36,000  Level Atlanta Center
Sun 05:19:18 AM 31.8261 -82.6139 320° Northwest 412 474 36,000  Level Atlanta Center
Sun 05:20:18 AM 31.9106 -82.6981 320° Northwest 412 474 36,000  Level Atlanta Center
Sun 05:21:18 AM 31.9969 -82.7850 320° Northwest 412 474 36,000  Level Atlanta Center
Sun 05:22:18 AM 32.0833 -82.8672 321° Northwest 412 474 36,000  Level Atlanta Center
Sun 05:23:18 AM 32.1697 -82.9519 320° Northwest 412 474 36,000  Level Atlanta Center
Sun 05:24:18 AM 32.2561 -83.0367 320° Northwest 412 474 36,000  Level Atlanta Center
Sun 05:25:18 AM 32.3403 -83.1244 319° Northwest 407 468 36,000  Level Atlanta Center
Sun 05:26:18 AM 32.4264 -83.2094 320° Northwest 407 468 36,000 -100 Level Atlanta Center
Sun 05:27:18 AM 32.5103 -83.2950 319° Northwest 407 468 35,800 -1,550 Descending Atlanta Center
Sun 05:28:18 AM 32.5944 -83.3806 319° Northwest 407 468 32,900 -3,450 Descending Atlanta Center
Sun 05:29:18 AM 32.6867 -83.4711 320° Northwest 412 474 28,900 -3,800 Descending Atlanta Center
Sun 05:30:18 AM 32.7767 -83.5644 319° Northwest 418 481 25,300 -3,700 Descending Atlanta Center
Sun 05:31:18 AM 32.8711 -83.6606 319° Northwest 432 497 21,500 -3,750 Descending Atlanta Center
Sun 05:32:18 AM 32.9589 -83.7492 320° Northwest 432 497 17,800 -3,150 Descending Atlanta Center
Sun 05:33:18 AM 33.0447 -83.8356 320° Northwest 420 483 15,200 -1,400 Descending Atlanta Center
Sun 05:34:18 AM 33.1325 -83.9272 319° Northwest 394 453 15,000 -550 Descending Atlanta Center
Sun 05:35:18 AM 33.2139 -84.0064 321° Northwest 380 437 14,100 -1,650 Descending Atlanta Center
Sun 05:36:18 AM 33.2892 -84.0836 319° Northwest 375 432 11,700 -1,550 Descending Atlanta Center
Sun 05:37:18 AM 33.3600 -84.1583 319° Northwest 352 405 11,000 -336 Descending Atlanta Center
Sun 05:38:23 AM 33.4333 -84.2167 326° Northwest 277 319 11,000  Level Atlanta TRACON
Sun 05:39:23 AM 33.4833 -84.2833 312° West 277 319 11,000 -650 Level Atlanta TRACON
Sun 05:40:23 AM 33.5500 -84.3500 320° Northwest 272 313 9,700 -1,500 Descending Atlanta TRACON
Sun 05:41:23 AM 33.5500 -84.4167 270° West 269 310 8,000 -1,700 Descending Atlanta TRACON
Sun 05:42:23 AM 33.5500 -84.5000 270° West 246 283 6,300 -2,050 Descending Atlanta TRACON
Sun 05:43:23 AM 33.5333 -84.5833 257° West 240 276 3,900 -1,650 Descending Atlanta TRACON
Sun 05:44:23 AM 33.5333 -84.6500 270° West 208 239 3,000 -450 Descending Atlanta TRACON
Sun 05:45:23 AM 33.5833 -84.6667 344° North 219 252 3,000  Level Atlanta TRACON
Sun 05:46:23 AM 33.6167 -84.6333 40° Northeast 206 237 3,000 -50 Level Atlanta TRACON
Sun 05:47:23 AM 33.6333 -84.5667 73° East 193 222 2,900 -100 Descending Atlanta TRACON

Login

Don't have an account? Register now (free) for customized features, flight alerts, and more!